Time;durP1;ratioP1;P1;durP2;ratioP2;P2;SDS_P1;SDS_P2;PMS_P1;PMS_P2;Temp;Humidity;BMP_temperature;BMP_pressure;BME280_temperature;BME280_humidity;BME280_pressure;Samples;Min_cycle;Max_cycle;Signal;HPM_P1;HPM_P2
2024/01/12 00:02:00;;;;;;;60.05;36.55;;;;;;;-2.16;100.00;103163.84;5032640;23;20040;-75
2024/01/12 00:04:25;;;;;;;70.28;38.22;;;;;;;-1.79;100.00;103221.84;5066454;28;20056;-76
2024/01/12 00:06:51;;;;;;;59.42;34.15;;;;;;;-1.82;100.00;103218.22;5042131;28;20045;-76
2024/01/12 00:09:16;;;;;;;65.70;35.53;;;;;;;-1.83;100.00;103216.44;5039515;28;20119;-76
2024/01/12 00:11:41;;;;;;;62.22;36.80;;;;;;;-1.80;100.00;103219.16;5032765;28;20034;-77
2024/01/12 00:14:07;;;;;;;61.22;35.17;;;;;;;-1.80;100.00;103216.53;5039010;28;20487;-76
2024/01/12 00:16:33;;;;;;;63.70;35.28;;;;;;;-1.77;100.00;103219.28;5045134;28;20214;-76
2024/01/12 00:18:58;;;;;;;61.22;35.25;;;;;;;-1.80;100.00;103216.53;5044032;28;20155;-76
2024/01/12 00:21:23;;;;;;;60.15;34.97;;;;;;;-1.80;100.00;103222.69;5029125;28;20033;-76
2024/01/12 00:23:49;;;;;;;61.45;35.92;;;;;;;-1.88;100.00;103211.06;5045721;28;20036;-76
2024/01/12 00:26:14;;;;;;;64.57;36.90;;;;;;;-1.82;100.00;103226.06;5047277;28;20029;-77
2024/01/12 00:28:40;;;;;;;64.72;37.53;;;;;;;-1.85;100.00;103220.72;5041520;28;20027;-76
2024/01/12 00:31:05;;;;;;;56.15;34.38;;;;;;;-1.83;100.00;103219.94;5035463;28;20541;-76
2024/01/12 00:33:30;;;;;;;64.68;37.38;;;;;;;-1.80;100.00;103219.16;5039984;28;20036;-76
2024/01/12 00:35:56;;;;;;;63.22;36.45;;;;;;;-1.81;100.00;103226.09;5045681;28;20021;-77
2024/01/12 00:38:21;;;;;;;63.20;35.75;;;;;;;-1.80;100.00;103219.16;5036004;28;20534;-77
2024/01/12 00:40:46;;;;;;;61.47;35.05;;;;;;;-1.82;100.00;103213.88;5038312;28;20481;-77
2024/01/12 00:43:12;;;;;;;60.65;36.58;;;;;;;-1.86;100.00;103219.81;5039147;28;20036;-77
2024/01/12 00:45:37;;;;;;;59.40;36.20;;;;;;;-1.82;100.00;103218.22;5037588;28;20151;-76
2024/01/12 00:48:05;;;;;;;62.05;35.53;;;;;;;-1.85;100.00;103216.38;5040186;28;20033;-77
2024/01/12 00:50:30;;;;;;;63.53;36.17;;;;;;;-1.85;100.00;103223.31;5038254;28;20482;-76
2024/01/12 00:52:56;;;;;;;58.60;34.20;;;;;;;-1.84;100.00;103230.31;5042090;28;20048;-76
2024/01/12 00:55:21;;;;;;;58.80;33.40;;;;;;;-1.84;100.00;103238.13;5041104;28;20028;-76
2024/01/12 00:57:46;;;;;;;61.47;35.65;;;;;;;-1.88;100.00;103237.16;5041428;28;20242;-76
2024/01/12 01:00:12;;;;;;;58.38;34.70;;;;;;;-1.85;100.00;103233.75;5029303;28;20029;-77
2024/01/12 01:02:38;;;;;;;62.53;36.10;;;;;;;-1.86;100.00;103226.75;5035313;28;20056;-76
2024/01/12 01:05:03;;;;;;;59.28;35.05;;;;;;;-1.87;100.00;103238.94;5043779;28;20072;-76
2024/01/12 01:07:29;;;;;;;59.20;34.63;;;;;;;-1.88;100.00;103231.94;5044146;28;20335;-76
2024/01/12 01:09:54;;;;;;;58.70;33.92;;;;;;;-1.87;100.00;103227.59;5044386;28;20094;-76
2024/01/12 01:12:20;;;;;;;63.03;36.22;;;;;;;-1.84;100.00;103236.44;5041504;28;20126;-77
2024/01/12 01:14:46;;;;;;;66.50;37.30;;;;;;;-1.87;100.00;103225.88;5046983;28;20036;-76
2024/01/12 01:17:12;;;;;;;64.10;38.30;;;;;;;-1.86;100.00;103229.38;5038725;28;20072;-76
2024/01/12 01:19:38;;;;;;;60.53;35.15;;;;;;;-1.83;100.00;103240.84;5041974;28;20048;-76
2024/01/12 01:22:03;;;;;;;64.47;37.45;;;;;;;-1.84;100.00;103232.91;5035251;28;20033;-76
2024/01/12 01:24:29;;;;;;;65.50;38.08;;;;;;;-1.85;100.00;103231.16;5044749;28;20375;-78
2024/01/12 01:26:55;;;;;;;65.13;35.97;;;;;;;-1.86;100.00;103232.88;5041466;28;20029;-77
2024/01/12 01:29:21;;;;;;;76.38;40.85;;;;;;;-1.78;100.00;103241.00;5041568;28;20032;-77
2024/01/12 01:31:47;;;;;;;66.50;37.50;;;;;;;-1.81;100.00;103246.09;5046315;28;20032;-77
2024/01/12 01:34:12;;;;;;;63.08;37.17;;;;;;;-1.85;100.00;103237.25;5034351;28;20025;-77
2024/01/12 01:36:37;;;;;;;60.30;35.88;;;;;;;-1.80;100.00;103256.63;5041813;28;20033;-78
2024/01/12 01:39:03;;;;;;;67.53;37.72;;;;;;;-1.84;100.00;103248.59;5037862;28;20124;-77
2024/01/12 01:41:28;;;;;;;62.25;36.90;;;;;;;-1.79;100.00;103265.34;5032900;28;20180;-76
2024/01/12 01:43:53;;;;;;;59.97;36.13;;;;;;;-1.84;100.00;103254.72;5047735;28;20052;-77
2024/01/12 01:46:22;;;;;;;66.85;37.38;;;;;;;-1.80;100.00;103273.97;5026261;23;20058;-76
2024/01/12 01:48:49;;;;;;;66.15;37.58;;;;;;;-1.79;100.00;103283.63;4998551;28;20674;-77
2024/01/12 01:51:15;;;;;;;59.92;35.63;;;;;;;-1.81;100.00;103277.44;4999904;28;20056;-77
2024/01/12 01:53:41;;;;;;;63.92;37.53;;;;;;;-1.79;100.00;103275.78;5010474;28;20041;-77
2024/01/12 01:56:06;;;;;;;67.65;37.90;;;;;;;-1.80;100.00;103269.69;5011481;28;20559;-77
2024/01/12 01:58:34;;;;;;;64.13;38.03;;;;;;;-1.73;100.00;103269.91;5000809;28;20116;-77
2024/01/12 02:00:59;;;;;;;69.00;39.53;;;;;;;-1.75;100.00;103264.63;5002294;28;20188;-77
2024/01/12 02:03:26;;;;;;;63.78;36.38;;;;;;;-1.74;100.00;103266.41;5007136;28;20100;-78
2024/01/12 02:05:51;;;;;;;64.70;38.03;;;;;;;-1.76;100.00;103265.44;5005270;28;20034;-78
2024/01/12 02:08:18;;;;;;;68.03;38.55;;;;;;;-1.72;100.00;103259.50;5001391;28;20022;-78
2024/01/12 02:10:46;;;;;;;65.72;38.17;;;;;;;-1.71;100.00;103258.69;5004793;28;20073;-78
2024/01/12 02:13:12;;;;;;;61.80;37.78;;;;;;;-1.72;100.00;103251.66;4987312;28;20253;-76
2024/01/12 02:15:37;;;;;;;64.05;38.30;;;;;;;-1.78;100.00;103241.00;4998615;28;20033;-76
2024/01/12 02:18:03;;;;;;;60.08;35.78;;;;;;;-1.78;100.00;103231.44;5038517;22;20049;-75
2024/01/12 02:20:28;;;;;;;63.80;37.63;;;;;;;-1.70;100.00;103239.56;5021131;28;20044;-77
2024/01/12 02:22:53;;;;;;;60.28;36.45;;;;;;;-1.70;100.00;103241.31;5024193;28;20402;-76
2024/01/12 02:25:22;;;;;;;61.05;36.75;;;;;;;-1.75;100.00;103233.28;5022301;28;20064;-77
2024/01/12 02:27:48;;;;;;;61.88;36.72;;;;;;;-1.70;100.00;103239.56;5028551;28;20032;-77
2024/01/12 02:30:14;;;;;;;63.42;37.78;;;;;;;-1.71;100.00;103240.41;5032395;28;20025;-76
2024/01/12 02:32:39;;;;;;;64.47;37.40;;;;;;;-1.71;100.00;103240.41;5024688;28;20759;-76
2024/01/12 02:35:05;;;;;;;65.75;36.42;;;;;;;-1.71;100.00;103240.41;5026890;28;20037;-77
2024/01/12 02:37:30;;;;;;;62.20;36.58;;;;;;;-1.77;100.00;103242.78;5026817;28;20056;-76
2024/01/12 02:39:55;;;;;;;60.03;37.08;;;;;;;-1.76;100.00;103232.41;5018646;28;20029;-77
2024/01/12 02:42:21;;;;;;;66.13;38.47;;;;;;;-1.72;100.00;103251.66;5012389;28;20060;-76
2024/01/12 02:44:46;;;;;;;60.83;34.70;;;;;;;-1.80;100.00;103229.59;5025356;28;20025;-77
2024/01/12 02:47:13;;;;;;;64.05;37.10;;;;;;;-1.70;100.00;103239.56;5024173;28;20470;-76
2024/01/12 02:49:38;;;;;;;65.47;37.67;;;;;;;-1.67;100.00;103241.38;5024081;28;20071;-77
2024/01/12 02:52:03;;;;;;;63.08;38.20;;;;;;;-1.79;100.00;103229.69;5023930;28;20705;-77
2024/01/12 02:54:29;;;;;;;59.45;36.75;;;;;;;-1.72;100.00;103235.13;5027199;28;20050;-77
2024/01/12 02:56:54;;;;;;;57.72;34.60;;;;;;;-1.78;100.00;103218.38;5018912;28;20068;-77
2024/01/12 02:59:20;;;;;;;62.08;37.05;;;;;;;-1.72;100.00;103229.91;5025750;28;20114;-76
2024/01/12 03:01:45;;;;;;;62.40;36.72;;;;;;;-1.68;100.00;103223.94;5017776;28;20029;-77
2024/01/12 03:04:11;;;;;;;66.15;39.00;;;;;;;-1.69;100.00;103224.78;5025405;28;20069;-77
2024/01/12 03:06:36;;;;;;;60.63;37.30;;;;;;;-1.68;100.00;103208.28;5020295;28;20033;-77
2024/01/12 03:09:01;;;;;;;64.28;37.35;;;;;;;-1.70;100.00;103207.34;5023304;28;20041;-76
2024/01/12 03:11:27;;;;;;;65.97;36.95;;;;;;;-1.67;100.00;103221.41;5030511;28;20028;-77
2024/01/12 03:13:52;;;;;;;63.85;37.35;;;;;;;-1.74;100.00;103216.78;5029512;28;20560;-77
2024/01/12 03:16:22;;;;;;;62.95;37.17;;;;;;;-1.66;100.00;103231.03;5027607;28;20024;-77
2024/01/12 03:18:48;;;;;;;61.53;37.63;;;;;;;-1.69;100.00;103223.06;5035590;28;20041;-76
2024/01/12 03:21:14;;;;;;;60.20;36.65;;;;;;;-1.70;100.00;103215.19;5021660;28;20034;-77
2024/01/12 03:23:40;;;;;;;67.35;39.58;;;;;;;-1.70;100.00;103208.25;5015720;28;20362;-78
2024/01/12 03:26:05;;;;;;;63.67;38.17;;;;;;;-1.64;100.00;103213.69;5014759;28;20033;-77
2024/01/12 03:28:30;;;;;;;61.90;38.45;;;;;;;-1.72;100.00;103198.56;5018575;28;20415;-78
2024/01/12 03:30:56;;;;;;;67.32;39.65;;;;;;;-1.66;100.00;103217.09;5021249;28;20034;-77
2024/01/12 03:33:21;;;;;;;63.72;38.53;;;;;;;-1.65;100.00;103203.19;5005213;28;20073;-77
2024/01/12 03:35:47;;;;;;;68.63;39.22;;;;;;;-1.61;100.00;103210.31;5019609;28;20616;-77
2024/01/12 03:38:12;;;;;;;64.65;39.42;;;;;;;-1.61;100.00;103205.97;5024718;28;20112;-76
2024/01/12 03:40:38;;;;;;;63.65;36.70;;;;;;;-1.68;100.00;103211.78;5026893;28;20043;-77
2024/01/12 03:43:03;;;;;;;71.03;38.67;;;;;;;-1.66;100.00;103210.13;5022662;28;20037;-77
2024/01/12 03:45:29;;;;;;;61.53;37.05;;;;;;;-1.62;100.00;103208.53;5020914;28;20041;-77
2024/01/12 03:47:54;;;;;;;66.25;37.95;;;;;;;-1.61;100.00;103212.91;5025435;28;20120;-77
2024/01/12 03:50:20;;;;;;;61.20;37.67;;;;;;;-1.65;100.00;103206.69;5025944;28;20120;-77
2024/01/12 03:52:46;;;;;;;60.25;35.28;;;;;;;-1.68;100.00;103205.69;5034465;28;20025;-78
2024/01/12 03:55:11;;;;;;;68.13;39.70;;;;;;;-1.70;100.00;103187.34;5033664;28;20457;-77
2024/01/12 03:57:37;;;;;;;63.20;37.78;;;;;;;-1.65;100.00;103195.34;5023437;28;20363;-76
2024/01/12 04:00:03;;;;;;;63.05;38.28;;;;;;;-1.63;100.00;103205.03;5034426;28;20017;-77
2024/01/12 04:02:29;;;;;;;62.13;36.80;;;;;;;-1.62;100.00;103196.38;5036418;28;20033;-77
2024/01/12 04:04:54;;;;;;;66.60;39.08;;;;;;;-1.64;100.00;103198.00;5013513;28;20141;-77
2024/01/12 04:07:22;;;;;;;65.88;37.67;;;;;;;-1.64;100.00;103192.78;5027425;28;20112;-76
2024/01/12 04:09:48;;;;;;;63.85;38.65;;;;;;;-1.67;100.00;103191.78;5016057;28;20026;-77
2024/01/12 04:12:13;;;;;;;66.53;36.60;;;;;;;-1.63;100.00;103191.06;5019949;28;20033;-77
2024/01/12 04:14:43;;;;;;;61.35;37.53;;;;;;;-1.67;100.00;103191.78;5026015;28;20037;-76
2024/01/12 04:17:09;;;;;;;65.95;37.15;;;;;;;-1.64;100.00;103187.56;5025916;28;20033;-77
2024/01/12 04:19:34;;;;;;;67.15;39.10;;;;;;;-1.61;100.00;103187.69;5032851;28;20044;-76
2024/01/12 04:21:59;;;;;;;69.25;40.40;;;;;;;-1.62;100.00;103192.88;5023935;28;20471;-77
2024/01/12 04:24:25;;;;;;;62.13;37.33;;;;;;;-1.69;100.00;103180.41;5021873;28;20506;-77
2024/01/12 04:26:53;;;;;;;62.80;38.10;;;;;;;-1.59;100.00;103195.56;5024125;28;20500;-77
2024/01/12 04:29:19;;;;;;;61.15;36.67;;;;;;;-1.64;100.00;103190.19;5026072;28;20042;-77
2024/01/12 04:31:44;;;;;;;67.00;37.65;;;;;;;-1.59;100.00;103188.66;5028223;28;20287;-77
2024/01/12 04:34:09;;;;;;;65.10;37.88;;;;;;;-1.63;100.00;103188.44;5020723;28;20038;-77
2024/01/12 04:36:35;;;;;;;65.60;37.17;;;;;;;-1.61;100.00;103194.63;5018819;28;20025;-77
2024/01/12 04:39:00;;;;;;;64.38;38.30;;;;;;;-1.61;100.00;103202.47;5026101;28;20026;-77
2024/01/12 04:41:26;;;;;;;67.68;38.22;;;;;;;-1.61;100.00;103199.84;5012113;28;20119;-77
2024/01/12 04:43:51;;;;;;;61.08;36.10;;;;;;;-1.57;100.00;103206.97;5031443;28;20548;-77
2024/01/12 04:46:17;;;;;;;64.60;37.45;;;;;;;-1.66;100.00;103194.47;5021387;28;20395;-77
2024/01/12 04:48:42;;;;;;;66.20;38.47;;;;;;;-1.59;100.00;103200.78;5020823;28;20270;-77
2024/01/12 04:51:07;;;;;;;66.43;37.25;;;;;;;-1.60;100.00;103205.13;5022766;28;20026;-78
2024/01/12 04:53:33;;;;;;;62.60;37.10;;;;;;;-1.59;100.00;103206.94;5034588;28;20475;-78
2024/01/12 04:55:58;;;;;;;64.03;37.47;;;;;;;-1.66;100.00;103193.59;5026331;28;20030;-77
2024/01/12 04:58:23;;;;;;;64.20;37.40;;;;;;;-1.59;100.00;103206.00;5033026;28;20033;-78
2024/01/12 05:00:49;;;;;;;59.85;37.42;;;;;;;-1.59;100.00;103206.00;5034191;28;20568;-78
2024/01/12 05:03:14;;;;;;;62.92;36.78;;;;;;;-1.59;100.00;103206.94;5030861;28;20033;-77
2024/01/12 05:05:40;;;;;;;66.40;37.55;;;;;;;-1.62;100.00;103201.59;5037991;22;20198;-76
2024/01/12 05:08:05;;;;;;;64.85;37.47;;;;;;;-1.57;100.00;103207.84;5023050;28;20034;-76
2024/01/12 05:10:30;;;;;;;65.40;38.28;;;;;;;-1.56;100.00;103204.41;5031144;28;20128;-76
2024/01/12 05:12:56;;;;;;;55.22;34.45;;;;;;;-1.59;100.00;103196.47;5030790;28;20037;-77
2024/01/12 05:15:21;;;;;;;58.85;36.33;;;;;;;-1.63;100.00;103188.44;5032463;23;20057;-77
2024/01/12 05:17:46;;;;;;;63.42;38.08;;;;;;;-1.58;100.00;103179.97;5034628;28;20049;-78
2024/01/12 05:20:12;;;;;;;62.88;37.67;;;;;;;-1.54;100.00;103174.03;5033754;28;20033;-78
2024/01/12 05:22:37;;;;;;;64.97;38.35;;;;;;;-1.54;100.00;103173.16;5021294;28;20028;-76
2024/01/12 05:25:04;;;;;;;67.25;38.42;;;;;;;-1.61;100.00;103187.69;5017576;28;20152;-78
2024/01/12 05:27:29;;;;;;;64.38;38.75;;;;;;;-1.61;100.00;103185.06;5020624;28;20025;-78
2024/01/12 05:29:55;;;;;;;69.50;38.97;;;;;;;-1.58;100.00;103177.38;5018032;28;20094;-78
2024/01/12 05:32:21;;;;;;;58.80;34.75;;;;;;;-1.59;100.00;103175.59;5020524;28;20034;-78
2024/01/12 05:34:46;;;;;;;58.97;36.08;;;;;;;-1.58;100.00;103182.59;5022497;28;20060;-76
2024/01/12 05:37:11;;;;;;;65.03;37.90;;;;;;;-1.56;100.00;103173.06;5017859;28;20037;-77
2024/01/12 05:39:37;;;;;;;56.00;34.63;;;;;;;-1.55;100.00;103180.09;5019131;28;20032;-76
2024/01/12 05:42:02;;;;;;;68.05;38.88;;;;;;;-1.54;100.00;103174.03;5024244;28;20410;-77
2024/01/12 05:44:28;;;;;;;66.38;38.05;;;;;;;-1.54;100.00;103173.16;5025082;28;20068;-77
2024/01/12 05:46:53;;;;;;;67.95;39.28;;;;;;;-1.52;100.00;103181.91;5029210;28;20029;-77
2024/01/12 05:49:18;;;;;;;58.03;35.45;;;;;;;-1.61;100.00;103172.03;5028523;28;20237;-77
2024/01/12 05:51:46;;;;;;;62.28;37.30;;;;;;;-1.54;100.00;103184.47;5017720;28;20048;-77
2024/01/12 05:54:11;;;;;;;60.97;36.78;;;;;;;-1.52;100.00;103187.13;5022428;28;20482;-77
2024/01/12 05:56:37;;;;;;;64.53;38.00;;;;;;;-1.51;100.00;103191.50;5021787;28;20018;-77
2024/01/12 05:59:02;;;;;;;62.30;37.70;;;;;;;-1.58;100.00;103176.47;5029339;28;20490;-76
2024/01/12 06:01:28;;;;;;;63.17;37.05;;;;;;;-1.55;100.00;103181.78;5027244;28;20028;-77
2024/01/12 06:03:53;;;;;;;64.82;37.78;;;;;;;-1.50;100.00;103188.09;5034304;28;20032;-77
2024/01/12 06:06:19;;;;;;;66.88;37.90;;;;;;;-1.42;100.00;103198.78;5018813;28;20056;-77
2024/01/12 06:08:44;;;;;;;63.20;36.40;;;;;;;-1.44;100.00;103205.69;5015996;28;20037;-78
2024/01/12 06:11:10;;;;;;;68.25;39.55;;;;;;;-1.41;100.00;103206.69;5022600;28;20119;-77
2024/01/12 06:13:35;;;;;;;66.57;38.58;;;;;;;-1.53;100.00;103178.41;5026159;28;20136;-78
2024/01/12 06:16:00;;;;;;;61.75;36.15;;;;;;;-1.38;100.00;103200.69;5026331;28;20049;-78
2024/01/12 06:18:26;;;;;;;59.95;35.45;;;;;;;-1.36;100.00;103194.69;5017407;28;20303;-78
2024/01/12 06:20:51;;;;;;;59.70;35.13;;;;;;;-1.38;100.00;103201.59;5024860;28;20061;-77
2024/01/12 06:23:16;;;;;;;60.67;34.95;;;;;;;-1.42;100.00;103193.56;5009236;28;20387;-77
2024/01/12 06:25:42;;;;;;;56.25;33.42;;;;;;;-1.38;100.00;103204.22;5015528;28;20029;-78
2024/01/12 06:28:07;;;;;;;59.92;33.88;;;;;;;-1.43;100.00;103202.25;5021648;28;20820;-77
2024/01/12 06:30:33;;;;;;;60.38;34.05;;;;;;;-1.33;100.00;103205.25;5019774;28;20534;-78
2024/01/12 06:32:59;;;;;;;64.40;35.40;;;;;;;-1.31;100.00;103215.75;5025019;28;20395;-78
2024/01/12 06:35:25;;;;;;;60.55;33.67;;;;;;;-1.32;100.00;103213.97;5019854;28;20025;-78
2024/01/12 06:37:53;;;;;;;58.38;33.05;;;;;;;-1.30;100.00;103221.03;5029119;28;20037;-78
2024/01/12 06:40:18;;;;;;;55.28;31.60;;;;;;;-1.30;100.00;103207.94;5011383;28;20033;-77
2024/01/12 06:42:43;;;;;;;51.78;29.92;;;;;;;-1.32;100.00;103212.25;5038426;28;20037;-78
2024/01/12 06:45:11;;;;;;;51.42;29.50;;;;;;;-1.25;100.00;103210.75;5026576;28;20041;-77
2024/01/12 06:47:36;;;;;;;53.67;29.38;;;;;;;-1.28;100.00;103205.41;5020093;28;20030;-77
2024/01/12 06:50:02;;;;;;;51.55;29.63;;;;;;;-1.22;100.00;103212.56;5023416;28;20041;-77
2024/01/12 06:52:30;;;;;;;54.47;30.80;;;;;;;-1.21;100.00;103216.97;5035829;28;20280;-77
2024/01/12 06:54:55;;;;;;;52.38;29.90;;;;;;;-1.26;100.00;103222.03;5022630;28;20021;-77
2024/01/12 06:57:23;;;;;;;52.47;29.48;;;;;;;-1.22;100.00;103225.63;5012330;28;20543;-76
2024/01/12 06:59:49;;;;;;;47.15;28.88;;;;;;;-1.24;100.00;103229.94;5015467;28;20033;-77
2024/01/12 07:02:15;;;;;;;51.10;29.48;;;;;;;-1.24;100.00;103227.31;5013177;28;20064;-77
2024/01/12 07:04:40;;;;;;;56.28;29.90;;;;;;;-1.19;100.00;103231.88;5015939;28;20053;-76
2024/01/12 07:07:07;;;;;;;46.63;28.73;;;;;;;-1.29;100.00;103216.72;5023342;28;20060;-76
2024/01/12 07:09:32;;;;;;;46.10;28.33;;;;;;;-1.32;100.00;103212.25;5028430;28;20044;-77
2024/01/12 07:11:57;;;;;;;47.55;27.80;;;;;;;-1.22;100.00;103217.81;5040459;28;20395;-76
2024/01/12 07:14:23;;;;;;;50.22;28.58;;;;;;;-1.18;100.00;103223.19;5025926;28;20136;-77
2024/01/12 07:16:48;;;;;;;45.15;26.92;;;;;;;-1.19;100.00;103218.81;5016539;28;20053;-78
2024/01/12 07:19:14;;;;;;;44.72;25.55;;;;;;;-1.19;100.00;103220.53;5022915;28;20034;-77
2024/01/12 07:21:39;;;;;;;46.17;25.83;;;;;;;-1.22;100.00;103218.69;5020400;28;20032;-77
2024/01/12 07:24:05;;;;;;;48.15;26.73;;;;;;;-1.16;100.00;103218.91;5029418;28;20455;-77
2024/01/12 07:26:30;;;;;;;47.40;25.35;;;;;;;-1.16;100.00;103211.09;5018560;28;20039;-77
2024/01/12 07:28:57;;;;;;;48.88;25.40;;;;;;;-1.14;100.00;103203.28;5027889;23;20061;-77
2024/01/12 07:31:23;;;;;;;40.50;23.90;;;;;;;-1.16;100.00;103205.84;5046043;28;20044;-78
2024/01/12 07:33:48;;;;;;;44.15;23.40;;;;;;;-1.09;100.00;103207.81;5035301;28;20020;-78
2024/01/12 07:36:14;;;;;;;41.20;24.30;;;;;;;-1.13;100.00;103203.34;5037591;28;20036;-78
2024/01/12 07:38:39;;;;;;;38.05;23.42;;;;;;;-1.08;100.00;103209.63;5047643;28;20036;-79
2024/01/12 07:41:04;;;;;;;41.33;24.00;;;;;;;-1.07;100.00;103213.13;5043884;28;20448;-78
2024/01/12 07:43:30;;;;;;;46.40;23.10;;;;;;;-1.14;100.00;103200.66;5044977;23;20057;-78
2024/01/12 07:45:56;;;;;;;43.08;22.73;;;;;;;-1.07;100.00;103211.41;5026265;28;20072;-78
2024/01/12 07:48:22;;;;;;;47.47;23.38;;;;;;;-1.12;100.00;103194.69;5032829;28;20064;-78
2024/01/12 07:50:48;;;;;;;43.55;22.92;;;;;;;-1.10;100.00;103219.13;5027916;28;20513;-76
2024/01/12 07:53:14;;;;;;;37.80;22.52;;;;;;;-1.06;100.00;103217.50;5024395;28;20033;-77
2024/01/12 07:55:39;;;;;;;41.78;21.63;;;;;;;-1.01;100.00;103208.97;5025792;28;20030;-77
2024/01/12 08:01:26;;;;;;;42.10;21.83;;;;;;;-0.99;100.00;103195.97;5045574;22;20467;-77
2024/01/12 08:03:55;;;;;;;40.63;22.13;;;;;;;-0.97;100.00;103202.13;5029202;28;20045;-78
2024/01/12 08:06:20;;;;;;;42.40;23.08;;;;;;;-0.98;100.00;103195.13;5042146;28;20503;-78
2024/01/12 08:08:46;;;;;;;40.33;24.08;;;;;;;-1.00;100.00;103186.38;5029501;28;20040;-78
2024/01/12 08:11:11;;;;;;;42.53;23.20;;;;;;;-0.94;100.00;103202.25;5025407;28;20584;-78
2024/01/12 08:13:37;;;;;;;38.35;22.05;;;;;;;-0.94;100.00;103210.09;5025232;28;20087;-77
2024/01/12 08:16:02;;;;;;;40.22;22.55;;;;;;;-0.92;100.00;103199.69;5016387;28;20025;-78
2024/01/12 08:18:28;;;;;;;38.97;23.13;;;;;;;-0.91;100.00;103204.09;5024742;28;20018;-78
2024/01/12 08:20:53;;;;;;;43.15;22.33;;;;;;;-0.88;100.00;103205.09;5022526;28;20112;-77
2024/01/12 08:23:18;;;;;;;39.75;21.80;;;;;;;-0.92;100.00;103191.84;5040426;28;20025;-78
2024/01/12 08:25:44;;;;;;;44.33;22.85;;;;;;;-0.91;100.00;103194.53;5026043;28;20390;-77
2024/01/12 08:28:09;;;;;;;39.05;21.45;;;;;;;-0.85;100.00;103204.28;5030829;28;20554;-78
2024/01/12 08:30:35;;;;;;;38.25;21.75;;;;;;;-0.73;100.00;103212.56;5027892;28;20530;-78
2024/01/12 08:33:00;;;;;;;41.15;21.98;;;;;;;-0.70;100.00;103220.50;5029894;28;20029;-77
2024/01/12 08:35:26;;;;;;;42.50;23.15;;;;;;;-0.71;100.00;103212.59;5030117;28;20028;-79
2024/01/12 08:37:54;;;;;;;42.47;22.55;;;;;;;-0.67;100.00;103211.84;5027962;28;20438;-79
2024/01/12 08:40:20;;;;;;;41.10;24.00;;;;;;;-0.66;100.00;103211.94;5022860;28;20068;-78
2024/01/12 08:42:45;;;;;;;40.60;23.92;;;;;;;-0.63;100.00;103217.22;5024426;28;20108;-78
2024/01/12 08:45:11;;;;;;;38.78;22.02;;;;;;;-0.71;100.00;103199.50;5024190;28;20505;-78
2024/01/12 08:47:36;;;;;;;45.75;24.27;;;;;;;-0.55;100.00;103221.00;5025857;28;20268;-77
2024/01/12 08:50:02;;;;;;;38.65;21.63;;;;;;;-0.60;100.00;103213.84;5027053;28;20033;-78
2024/01/12 08:52:28;;;;;;;36.85;22.60;;;;;;;-0.59;100.00;103221.72;5026333;28;20030;-77
2024/01/12 08:54:53;;;;;;;49.00;23.05;;;;;;;-0.49;100.00;103214.22;5026111;28;20430;-78
2024/01/12 08:57:19;;;;;;;37.00;21.73;;;;;;;-0.53;100.00;103211.47;5026191;28;20052;-79
2024/01/12 08:59:44;;;;;;;44.55;23.63;;;;;;;-0.44;100.00;103217.84;5026200;28;20025;-79
2024/01/12 09:02:10;;;;;;;44.15;22.25;;;;;;;-0.44;100.00;103215.25;5024828;28;20041;-78
2024/01/12 09:04:35;;;;;;;41.08;22.02;;;;;;;-0.41;100.00;103213.63;5018367;28;20040;-79
2024/01/12 09:07:01;;;;;;;38.63;22.08;;;;;;;-0.40;100.00;103215.38;5022825;28;20569;-79
2024/01/12 09:09:26;;;;;;;36.88;21.05;;;;;;;-0.39;100.00;103208.41;5019179;28;20079;-79
2024/01/12 09:11:53;;;;;;;39.83;20.88;;;;;;;-0.34;100.00;103206.84;5021238;28;20053;-78
2024/01/12 09:14:19;;;;;;;34.83;19.40;;;;;;;-0.27;100.00;103214.06;5024371;28;20068;-78
2024/01/12 09:16:44;;;;;;;33.47;20.25;;;;;;;-0.29;100.00;103197.44;5021889;28;20037;-77
2024/01/12 09:19:09;;;;;;;39.65;19.67;;;;;;;-0.19;100.00;103214.28;5019678;28;20021;-75
2024/01/12 09:21:35;;;;;;;38.33;19.98;;;;;;;-0.17;100.00;103221.34;5022189;28;20036;-77
2024/01/12 09:24:00;;;;;;;37.97;19.40;;;;;;;-0.19;100.00;103202.09;5023454;28;20624;-78
2024/01/12 09:26:26;;;;;;;33.40;19.95;;;;;;;-0.05;100.00;103219.09;5018469;28;20033;-77
2024/01/12 09:28:51;;;;;;;35.50;19.88;;;;;;;-0.04;100.00;103210.44;5021335;28;20491;-77
2024/01/12 09:31:16;;;;;;;35.63;19.92;;;;;;;-0.01;100.00;103205.25;5022198;28;20116;-77
2024/01/12 09:33:42;;;;;;;33.45;19.15;;;;;;;0.05;100.00;103215.06;5021136;28;20033;-76
2024/01/12 09:36:08;;;;;;;30.90;18.17;;;;;;;0.08;100.00;103219.47;5023362;28;20041;-77
2024/01/12 09:38:33;;;;;;;29.45;18.27;;;;;;;0.10;100.00;103216.09;5015410;28;20035;-78
2024/01/12 09:41:01;;;;;;;30.83;19.02;;;;;;;0.10;100.00;103217.81;5021753;28;20216;-78
2024/01/12 09:43:31;;;;;;;34.03;18.65;;;;;;;0.13;100.00;103229.28;5017766;28;20628;-77
2024/01/12 09:46:03;;;;;;;34.50;19.33;;;;;;;0.17;100.00;103228.53;5024257;28;20044;-77
2024/01/12 09:48:30;;;;;;;34.47;19.42;;;;;;;0.12;100.00;103216.13;5025521;28;20072;-77
2024/01/12 09:50:56;;;;;;;33.38;19.50;;;;;;;0.20;100.00;103215.50;5021888;28;20048;-78
2024/01/12 09:53:25;;;;;;;31.48;19.20;;;;;;;0.24;100.00;103212.13;5021902;28;20036;-78
2024/01/12 09:55:50;;;;;;;32.42;19.33;;;;;;;0.19;100.00;103192.78;5018246;28;20351;-77
2024/01/12 09:58:21;;;;;;;34.95;20.08;;;;;;;0.25;100.00;103192.06;5016789;28;20026;-78
2024/01/12 10:00:50;;;;;;;33.25;19.70;;;;;;;0.29;100.00;103198.28;5022081;28;20045;-78
2024/01/12 10:03:17;;;;;;;32.20;18.63;;;;;;;0.40;100.00;103204.72;5019078;28;20072;-77
2024/01/12 10:05:43;;;;;;;34.10;19.75;;;;;;;0.46;100.00;103218.91;5023981;28;20036;-76
2024/01/12 10:08:09;;;;;;;32.53;19.20;;;;;;;0.47;100.00;103199.72;5021659;28;20284;-77
2024/01/12 10:10:34;;;;;;;28.88;17.38;;;;;;;0.52;100.00;103202.47;5016795;28;20151;-77
2024/01/12 10:13:03;;;;;;;28.90;17.63;;;;;;;0.62;100.00;103214.09;5020496;28;20076;-77
2024/01/12 10:15:29;;;;;;;29.77;17.42;;;;;;;0.61;100.00;103207.94;5023105;28;20025;-77
2024/01/12 10:17:55;;;;;;;33.50;18.08;;;;;;;0.72;100.00;103229.25;5021894;28;20030;-77
2024/01/12 10:20:22;;;;;;;32.88;17.88;;;;;;;0.72;100.00;103224.88;5021615;28;20526;-77
2024/01/12 10:22:54;;;;;;;35.28;18.55;;;;;;;0.76;100.00;103222.34;5019551;28;20029;-77
2024/01/12 10:25:20;;;;;;;34.35;19.08;;;;;;;0.81;100.00;103220.75;5014506;28;20503;-77
2024/01/12 10:27:54;;;;;;;31.13;17.27;;;;;;;0.80;100.00;103218.97;5023790;28;20029;-76
2024/01/12 10:30:20;;;;;;;31.42;17.75;;;;;;;0.87;100.00;103215.66;5022250;28;20036;-76
2024/01/12 10:32:56;;;;;;;32.10;17.17;;;;;;;0.91;100.00;103217.50;5020826;28;20033;-76
2024/01/12 10:35:22;;;;;;;31.25;17.88;;;;;;;0.95;100.00;103219.38;5022662;28;20048;-75
2024/01/12 10:37:49;;;;;;;36.38;17.73;;;;;;;1.01;100.00;103211.69;5019050;28;20072;-77
2024/01/12 10:40:18;;;;;;;33.20;18.15;;;;;;;1.05;100.00;103207.41;5023509;28;20095;-76
2024/01/12 10:42:50;;;;;;;27.67;16.90;;;;;;;1.04;100.00;103208.22;5019056;28;20154;-76
2024/01/12 10:45:25;;;;;;;32.17;16.65;;;;;;;1.07;100.00;103201.34;5019265;28;20036;-77
2024/01/12 10:48:00;;;;;;;27.40;15.90;;;;;;;1.04;100.00;103179.38;5021543;28;20025;-76
2024/01/12 10:50:25;;;;;;;25.15;16.50;;;;;;;1.07;100.00;103197.81;5021113;28;20060;-76
2024/01/12 10:53:18;;;;;;;31.77;16.73;;;;;;;1.09;100.00;103190.91;5036115;28;20029;-76
2024/01/12 10:55:53;;;;;;;28.00;16.60;;;;;;;1.05;100.00;103189.94;5033125;28;20025;-76
2024/01/12 10:58:19;;;;;;;28.25;16.67;;;;;;;1.10;100.00;103192.66;5027977;28;20029;-76
2024/01/12 11:00:46;;;;;;;33.50;18.92;;;;;;;1.08;100.00;103189.09;5022416;28;20677;-76